Time;durP1;ratioP1;P1;durP2;ratioP2;P2;SDS_P1;SDS_P2;PMS_P1;PMS_P2;Temp;Humidity;BMP_temperature;BMP_pressure;BME280_temperature;BME280_humidity;BME280_pressure;Samples;Min_cycle;Max_cycle;Signal;HPM_P1;HPM_P2
2023/09/06 00:00:45;;;;;;;9.30;3.90;;;;;;;15.16;100.00;95134.44;4927615;29;20062;-83
2023/09/06 00:03:12;;;;;;;10.05;4.25;;;;;;;14.98;100.00;95134.03;4942220;29;20127;-83
2023/09/06 00:05:41;;;;;;;7.60;3.80;;;;;;;15.18;100.00;95134.97;4942991;29;20094;-83
2023/09/06 00:08:12;;;;;;;7.80;3.58;;;;;;;15.23;100.00;95139.41;4927387;29;20046;-82
2023/09/06 00:10:39;;;;;;;10.35;3.80;;;;;;;15.25;100.00;95139.91;4927634;29;20023;-82
2023/09/06 00:13:09;;;;;;;10.93;3.50;;;;;;;15.25;100.00;95142.56;4943291;29;20072;-83
2023/09/06 00:15:35;;;;;;;16.02;3.88;;;;;;;15.27;100.00;95143.84;4942883;29;20031;-83
2023/09/06 00:18:05;;;;;;;7.85;3.92;;;;;;;15.28;100.00;95142.00;4942656;29;20063;-82
2023/09/06 00:20:34;;;;;;;5.90;3.60;;;;;;;15.24;100.00;95139.13;4960364;29;20129;-82
2023/09/06 00:23:02;;;;;;;13.00;3.75;;;;;;;15.34;100.00;95134.81;4943526;29;20508;-82
2023/09/06 00:25:31;;;;;;;8.75;3.83;;;;;;;15.25;100.00;95138.03;4943204;29;20074;-82
2023/09/06 00:27:59;;;;;;;6.20;3.20;;;;;;;15.28;100.00;95142.00;4943143;29;20038;-82
2023/09/06 00:30:24;;;;;;;6.43;3.33;;;;;;;15.25;100.00;95138.03;4943059;29;20357;-83
2023/09/06 00:32:52;;;;;;;7.95;3.53;;;;;;;15.25;100.00;95142.56;4959913;29;20031;-83
2023/09/06 00:35:23;;;;;;;8.70;3.78;;;;;;;15.32;100.00;95137.72;4959515;29;20203;-83
2023/09/06 00:37:49;;;;;;;9.40;3.75;;;;;;;15.17;100.00;95143.13;4940668;29;20096;-83
2023/09/06 00:40:17;;;;;;;7.63;3.17;;;;;;;15.17;100.00;95135.22;4958110;29;20047;-83
2023/09/06 00:42:50;;;;;;;8.80;3.20;;;;;;;15.16;100.00;95137.09;4940890;29;20035;-83
2023/09/06 00:45:17;;;;;;;8.93;3.92;;;;;;;15.14;100.00;95131.31;4940410;29;20102;-83
2023/09/06 00:47:43;;;;;;;8.50;3.60;;;;;;;15.18;100.00;95134.16;4957902;29;20041;-83
2023/09/06 00:50:11;;;;;;;6.10;3.45;;;;;;;15.17;100.00;95130.75;4958040;29;20137;-83
2023/09/06 00:52:37;;;;;;;10.95;3.53;;;;;;;15.16;100.00;95136.28;4941089;29;20031;-83
2023/09/06 00:55:03;;;;;;;6.65;3.33;;;;;;;15.13;100.00;95125.22;4940791;29;20031;-83
2023/09/06 00:57:32;;;;;;;5.68;3.20;;;;;;;15.11;100.00;95135.28;4940568;29;20042;-83
2023/09/06 01:00:01;;;;;;;9.38;3.70;;;;;;;15.02;100.00;95129.00;4957986;29;20042;-83
2023/09/06 01:02:26;;;;;;;13.88;3.35;;;;;;;14.97;100.00;95131.69;4940989;29;20039;-83
2023/09/06 01:04:53;;;;;;;9.35;3.40;;;;;;;15.13;100.00;95129.69;4940357;29;20456;-83
2023/09/06 01:07:19;;;;;;;6.95;3.25;;;;;;;15.04;100.00;95126.88;4923986;29;20070;-83
2023/09/06 01:09:45;;;;;;;4.72;2.92;;;;;;;15.07;100.00;95126.34;4940666;29;20456;-83
2023/09/06 01:12:12;;;;;;;5.25;3.25;;;;;;;15.09;100.00;95124.22;4940704;29;20030;-83
2023/09/06 01:14:40;;;;;;;7.68;3.17;;;;;;;15.08;100.00;95122.63;4924775;29;20031;-83
2023/09/06 01:17:06;;;;;;;5.18;3.13;;;;;;;15.00;100.00;95117.19;4940367;29;20173;-83
2023/09/06 01:19:33;;;;;;;5.75;2.95;;;;;;;15.03;100.00;95111.34;4940462;29;20089;-83
2023/09/06 01:22:08;;;;;;;9.88;3.53;;;;;;;15.01;100.00;95116.09;4940120;29;20046;-83
2023/09/06 01:24:34;;;;;;;9.35;3.33;;;;;;;15.06;100.00;95113.41;4940097;29;20035;-83
2023/09/06 01:27:01;;;;;;;9.65;3.40;;;;;;;15.06;100.00;95114.22;4939854;29;20376;-83
2023/09/06 01:29:29;;;;;;;7.30;2.97;;;;;;;14.99;100.00;95121.66;4940416;29;20346;-83
2023/09/06 01:31:54;;;;;;;5.20;3.08;;;;;;;15.08;100.00;95121.84;4940343;29;20393;-83
2023/09/06 01:34:19;;;;;;;5.78;3.05;;;;;;;15.09;100.00;95108.38;4940104;29;20043;-83
2023/09/06 01:36:45;;;;;;;5.07;3.10;;;;;;;15.18;100.00;95113.03;4957468;29;20094;-83
2023/09/06 01:39:10;;;;;;;7.25;3.30;;;;;;;15.08;100.00;95111.28;4957057;29;20464;-83
2023/09/06 01:41:36;;;;;;;8.93;3.05;;;;;;;15.04;100.00;95103.13;4956908;29;20114;-83
2023/09/06 01:44:01;;;;;;;6.38;2.83;;;;;;;15.03;100.00;95101.56;4940040;29;20038;-83
2023/09/06 01:46:26;;;;;;;11.18;3.63;;;;;;;15.13;100.00;95093.56;4924305;29;20035;-83
2023/09/06 01:48:52;;;;;;;8.57;3.72;;;;;;;15.09;100.00;95097.03;4939487;29;20393;-83
2023/09/06 01:51:17;;;;;;;12.07;3.75;;;;;;;15.01;100.00;95098.41;4957227;29;20035;-83
2023/09/06 01:53:43;;;;;;;6.43;3.30;;;;;;;15.03;100.00;95098.13;4940054;29;20035;-83
2023/09/06 01:56:08;;;;;;;10.63;3.42;;;;;;;15.08;100.00;95100.72;4940087;28;20067;-83
2023/09/06 01:58:37;;;;;;;6.00;3.40;;;;;;;15.02;100.00;95088.66;4956765;29;20042;-83
2023/09/06 02:01:05;;;;;;;9.13;3.75;;;;;;;15.00;100.00;95088.91;4939861;29;20055;-83
2023/09/06 02:03:34;;;;;;;7.03;3.72;;;;;;;14.96;100.00;95082.63;4957810;29;20057;-83
2023/09/06 02:06:04;;;;;;;15.15;3.75;;;;;;;14.91;100.00;95080.00;4941739;29;20038;-83
2023/09/06 02:08:30;;;;;;;6.75;3.20;;;;;;;14.81;100.00;95094.88;4942062;29;20126;-84
2023/09/06 02:10:56;;;;;;;8.43;3.45;;;;;;;14.67;100.00;95089.41;4941890;29;20493;-83
2023/09/06 02:13:21;;;;;;;5.60;2.88;;;;;;;14.66;100.00;95092.34;4941175;29;20059;-83
2023/09/06 02:15:48;;;;;;;10.77;3.53;;;;;;;14.64;100.00;95087.31;4941603;29;20039;-84
2023/09/06 02:18:15;;;;;;;5.25;3.45;;;;;;;14.67;100.00;95086.00;4958547;29;20134;-83
2023/09/06 02:20:41;;;;;;;6.43;3.55;;;;;;;14.77;100.00;95090.44;4941728;29;20353;-83
2023/09/06 02:23:07;;;;;;;9.00;3.55;;;;;;;14.75;100.00;95084.66;4941413;29;20425;-83
2023/09/06 02:25:33;;;;;;;5.85;2.95;;;;;;;14.75;100.00;95082.78;4958292;29;20117;-83
2023/09/06 02:28:04;;;;;;;11.55;3.72;;;;;;;14.66;100.00;95079.91;4958433;29;20042;-83
2023/09/06 02:30:29;;;;;;;11.88;3.22;;;;;;;14.49;100.00;95082.16;4942082;29;20039;-84
2023/09/06 02:32:55;;;;;;;7.00;3.25;;;;;;;14.57;100.00;95086.84;4941381;29;20463;-83
2023/09/06 02:35:20;;;;;;;5.38;3.65;;;;;;;14.53;100.00;95089.25;4941343;29;20047;-83
2023/09/06 02:37:46;;;;;;;5.43;3.58;;;;;;;14.44;100.00;95090.88;4940916;29;20066;-84
2023/09/06 02:40:17;;;;;;;8.70;3.28;;;;;;;14.49;100.00;95096.13;4941190;29;20368;-83
2023/09/06 02:42:44;;;;;;;9.02;3.38;;;;;;;14.53;100.00;95083.97;4958037;29;20031;-83
2023/09/06 02:45:13;;;;;;;6.68;4.00;;;;;;;14.42;100.00;95095.66;4941101;29;20027;-84
2023/09/06 02:47:47;;;;;;;7.25;3.63;;;;;;;14.36;100.00;95092.25;4958264;29;20035;-83
2023/09/06 02:50:14;;;;;;;4.75;3.33;;;;;;;14.37;100.00;95093.03;4942007;29;20035;-83
2023/09/06 02:52:39;;;;;;;9.07;3.70;;;;;;;14.39;100.00;95090.91;4958666;29;20109;-83
2023/09/06 02:55:10;;;;;;;6.18;3.50;;;;;;;14.46;100.00;95085.34;4941095;29;20066;-83
2023/09/06 02:57:36;;;;;;;6.63;3.33;;;;;;;14.47;100.00;95077.16;4941776;29;20346;-83
2023/09/06 03:00:08;;;;;;;6.13;3.25;;;;;;;14.44;100.00;95082.19;4941102;29;20035;-83
2023/09/06 03:02:34;;;;;;;7.32;3.78;;;;;;;14.52;100.00;95078.97;4941787;29;20038;-83
2023/09/06 03:05:04;;;;;;;9.75;3.63;;;;;;;14.52;100.00;95079.75;4958149;29;20043;-83
2023/09/06 03:07:31;;;;;;;7.03;3.78;;;;;;;14.56;100.00;95083.41;4941569;28;20170;-83
2023/09/06 03:09:57;;;;;;;7.75;3.67;;;;;;;14.60;100.00;95073.13;4943706;29;20062;-83
2023/09/06 03:12:22;;;;;;;7.60;3.67;;;;;;;14.77;100.00;95069.31;4944503;29;20429;-84
2023/09/06 03:14:48;;;;;;;8.88;3.60;;;;;;;14.83;100.00;95076.13;4944134;29;20366;-83
2023/09/06 03:17:18;;;;;;;7.38;3.10;;;;;;;14.87;100.00;95073.72;4943638;29;20046;-83
2023/09/06 03:19:45;;;;;;;8.48;3.45;;;;;;;14.93;100.00;95068.13;4960834;29;20035;-83
2023/09/06 03:22:12;;;;;;;8.27;3.63;;;;;;;15.07;100.00;95068.28;4943863;29;20031;-83
2023/09/06 03:24:43;;;;;;;11.50;3.65;;;;;;;15.03;100.00;95072.53;4925203;29;20464;-83
2023/09/06 03:27:10;;;;;;;6.68;3.42;;;;;;;14.99;100.00;95068.88;4940569;29;20045;-83
2023/09/06 03:29:38;;;;;;;9.05;3.40;;;;;;;15.03;100.00;95074.41;4943882;29;20046;-83
2023/09/06 03:32:10;;;;;;;5.47;3.08;;;;;;;14.97;100.00;95063.88;4961160;29;20425;-83
2023/09/06 03:34:36;;;;;;;4.43;2.83;;;;;;;14.98;100.00;95067.31;4961531;29;20043;-83
2023/09/06 03:37:05;;;;;;;7.22;3.17;;;;;;;15.00;100.00;95054.63;4943949;29;20334;-83
2023/09/06 03:39:37;;;;;;;6.80;3.03;;;;;;;14.94;100.00;95056.50;4944188;29;20385;-83
2023/09/06 03:42:08;;;;;;;5.75;3.40;;;;;;;14.96;100.00;95054.38;4943030;29;20046;-83
2023/09/06 03:44:37;;;;;;;6.35;3.28;;;;;;;14.91;100.00;95061.53;4943440;29;20109;-83
2023/09/06 03:47:13;;;;;;;9.00;3.80;;;;;;;14.80;100.00;95056.38;4942842;29;20046;-83
2023/09/06 03:49:40;;;;;;;4.93;3.15;;;;;;;14.82;100.00;95051.59;4928220;29;20031;-83
2023/09/06 03:52:06;;;;;;;9.23;3.38;;;;;;;14.84;100.00;95065.31;4942862;29;20027;-83
2023/09/06 03:54:34;;;;;;;5.40;3.08;;;;;;;14.80;100.00;95060.84;4942436;29;20046;-83
2023/09/06 03:57:03;;;;;;;4.80;3.30;;;;;;;14.70;100.00;95059.06;4959740;29;20047;-83
2023/09/06 03:59:30;;;;;;;6.65;3.05;;;;;;;14.70;100.00;95044.03;4942684;29;20043;-84
2023/09/06 04:01:55;;;;;;;8.40;3.38;;;;;;;14.70;100.00;95059.06;4926618;29;20039;-83
2023/09/06 04:04:22;;;;;;;7.20;2.95;;;;;;;14.75;100.00;95051.13;4942398;29;20059;-83
2023/09/06 04:06:47;;;;;;;9.43;3.88;;;;;;;14.79;100.00;95054.81;4942350;29;20398;-83
2023/09/06 04:09:13;;;;;;;5.47;3.42;;;;;;;14.81;100.00;95043.97;4959520;29;20073;-83
2023/09/06 04:11:40;;;;;;;5.72;3.60;;;;;;;14.78;100.00;95040.03;4959583;29;20070;-83
2023/09/06 04:14:05;;;;;;;9.75;4.25;;;;;;;14.76;100.00;95050.06;4944717;29;20070;-83
2023/09/06 04:16:31;;;;;;;7.47;3.42;;;;;;;14.77;100.00;95037.69;4923397;29;20118;-83
2023/09/06 04:18:56;;;;;;;9.02;3.50;;;;;;;14.79;100.00;95041.63;4907349;29;20044;-83
2023/09/06 04:21:22;;;;;;;7.53;3.85;;;;;;;14.76;100.00;95039.50;4938621;29;20086;-84
2023/09/06 04:23:48;;;;;;;8.98;3.47;;;;;;;14.77;100.00;95040.31;4923153;29;20091;-83
2023/09/06 04:26:14;;;;;;;8.10;3.38;;;;;;;14.77;100.00;95041.09;4939984;29;20035;-83
2023/09/06 04:28:40;;;;;;;10.18;3.65;;;;;;;14.66;100.00;95040.34;4940135;29;20045;-84
2023/09/06 04:31:06;;;;;;;9.02;3.67;;;;;;;14.74;100.00;95039.00;4940142;29;20070;-83
2023/09/06 04:33:31;;;;;;;5.15;3.33;;;;;;;14.78;100.00;95039.25;4923099;29;20476;-84
2023/09/06 04:35:57;;;;;;;6.70;2.97;;;;;;;14.77;100.00;95040.31;4922871;29;20040;-84
2023/09/06 04:38:25;;;;;;;8.15;3.20;;;;;;;14.70;100.00;95028.22;4939879;29;20036;-84
2023/09/06 04:40:52;;;;;;;7.43;3.50;;;;;;;14.76;100.00;95041.38;4882253;29;1224130;-83
2023/09/06 04:43:18;;;;;;;8.70;3.00;;;;;;;14.64;100.00;95037.22;4940724;29;20497;-83
2023/09/06 04:45:44;;;;;;;16.25;3.80;;;;;;;14.53;100.00;95039.16;4923795;29;20118;-84
2023/09/06 04:48:11;;;;;;;8.55;3.60;;;;;;;14.48;100.00;95041.81;4923662;29;20047;-83
2023/09/06 04:50:39;;;;;;;7.30;3.40;;;;;;;14.49;100.00;95048.69;4923635;29;20066;-83
2023/09/06 04:53:05;;;;;;;9.20;4.18;;;;;;;14.36;100.00;95044.03;4923689;29;20027;-83
2023/09/06 04:55:35;;;;;;;7.10;3.72;;;;;;;14.35;100.00;95042.44;4923360;29;20087;-85
2023/09/06 04:58:01;;;;;;;14.07;3.78;;;;;;;14.16;100.00;95047.56;4940521;29;20438;-85
2023/09/06 05:00:30;;;;;;;8.68;3.60;;;;;;;14.22;100.00;95046.47;4923254;29;20032;-85
2023/09/06 05:02:57;;;;;;;8.48;3.80;;;;;;;14.24;100.00;95045.16;4923280;29;20035;-85
2023/09/06 05:05:22;;;;;;;6.72;3.20;;;;;;;14.22;100.00;95044.63;4940406;29;20040;-85
2023/09/06 05:07:48;;;;;;;12.10;4.05;;;;;;;14.31;100.00;95044.84;4923641;29;20043;-85
2023/09/06 05:10:13;;;;;;;6.45;3.60;;;;;;;14.18;100.00;95042.81;4940343;29;20458;-85
2023/09/06 05:12:39;;;;;;;8.55;3.35;;;;;;;14.30;100.00;95042.47;4940952;29;20061;-86
2023/09/06 05:15:06;;;;;;;6.75;3.33;;;;;;;14.23;100.00;95042.78;4958967;29;20457;-86
2023/09/06 05:17:34;;;;;;;7.13;3.55;;;;;;;14.32;100.00;95043.78;4959166;29;20050;-86
2023/09/06 05:20:27;;;;;;;9.23;3.78;;;;;;;13.92;100.00;95056.94;4959492;29;20468;-84
2023/09/06 05:22:57;;;;;;;7.47;3.87;;;;;;;13.68;100.00;95054.91;4959309;29;20039;-85
2023/09/06 05:25:23;;;;;;;9.30;3.88;;;;;;;13.51;100.00;95049.19;4942268;29;20279;-85
2023/09/06 05:27:49;;;;;;;8.48;4.18;;;;;;;13.52;100.00;95056.03;4959143;29;20464;-85
2023/09/06 05:30:15;;;;;;;9.13;3.90;;;;;;;13.41;100.00;95048.13;4959192;29;20047;-86
2023/09/06 05:32:40;;;;;;;9.93;3.72;;;;;;;13.45;100.00;95050.25;4925660;29;20042;-86
2023/09/06 05:35:06;;;;;;;6.95;3.30;;;;;;;13.54;100.00;95043.38;4942145;29;20043;-85
2023/09/06 05:37:32;;;;;;;7.63;3.92;;;;;;;14.00;100.00;95058.97;4941281;29;20043;-86
2023/09/06 05:39:57;;;;;;;11.05;3.50;;;;;;;14.39;100.00;95054.00;4941284;29;20047;-86
2023/09/06 05:42:23;;;;;;;13.35;4.43;;;;;;;14.51;100.00;95054.47;4926223;29;20130;-86
2023/09/06 05:44:48;;;;;;;19.35;3.83;;;;;;;14.18;100.00;95054.13;4941724;29;20038;-86
2023/09/06 05:47:14;;;;;;;13.85;3.80;;;;;;;14.21;100.00;95048.34;4958844;29;20437;-86
2023/09/06 05:49:40;;;;;;;7.18;3.90;;;;;;;14.58;100.00;95040.97;4941455;29;20039;-86
2023/09/06 05:52:06;;;;;;;4.45;3.33;;;;;;;14.90;100.00;95036.22;4941852;29;20043;-86
2023/09/06 05:54:31;;;;;;;5.32;3.20;;;;;;;15.17;100.00;95042.84;4941775;29;20590;-86
2023/09/06 05:56:57;;;;;;;4.93;3.40;;;;;;;15.40;100.00;95038.63;4925415;29;20045;-86
2023/09/06 05:59:23;;;;;;;4.93;2.60;;;;;;;15.52;100.00;95038.25;4958749;29;20177;-86
2023/09/06 06:01:49;;;;;;;5.63;2.83;;;;;;;15.73;100.00;95036.16;4941636;29;20434;-85
2023/09/06 06:04:14;;;;;;;5.82;3.05;;;;;;;15.91;100.00;95033.84;4941752;29;20126;-86
2023/09/06 06:06:41;;;;;;;7.30;3.75;;;;;;;16.08;100.00;95031.50;4941420;29;20137;-86
2023/09/06 06:09:11;;;;;;;6.57;3.20;;;;;;;16.16;100.00;95040.66;4925607;29;20086;-86
2023/09/06 06:11:37;;;;;;;5.32;3.42;;;;;;;16.23;100.00;95042.94;4942004;29;20082;-85
2023/09/06 06:14:03;;;;;;;8.15;3.80;;;;;;;16.30;100.00;95047.88;4941539;29;20058;-86
2023/09/06 06:16:29;;;;;;;7.72;3.70;;;;;;;16.54;100.00;95045.91;4941703;29;20035;-86
2023/09/06 06:18:55;;;;;;;5.63;3.20;;;;;;;16.61;100.00;95045.56;4941144;29;20035;-86
2023/09/06 06:21:20;;;;;;;5.63;3.13;;;;;;;16.84;100.00;95045.69;4941054;29;20067;-86
2023/09/06 06:23:47;;;;;;;6.95;3.47;;;;;;;16.87;100.00;95039.06;4941201;29;20039;-86
2023/09/06 06:26:15;;;;;;;4.88;3.20;;;;;;;17.01;100.00;95055.00;4958519;29;20065;-86
2023/09/06 06:28:40;;;;;;;6.95;3.20;;;;;;;16.57;100.00;95051.69;4958474;29;20043;-87
2023/09/06 06:31:06;;;;;;;6.90;3.38;;;;;;;17.03;100.00;95056.28;4941615;29;20074;-86
2023/09/06 06:33:32;;;;;;;5.05;2.88;;;;;;;17.23;100.00;95049.06;4941385;29;20070;-86
2023/09/06 06:35:58;;;;;;;10.82;3.40;;;;;;;17.20;100.00;95052.28;4941253;29;20035;-86
2023/09/06 06:38:23;;;;;;;7.15;2.72;;;;;;;17.39;100.00;95049.56;4941263;29;20045;-87
2023/09/06 06:40:49;;;;;;;5.88;3.10;;;;;;;17.38;100.00;95050.63;4941192;29;20042;-87
2023/09/06 06:43:16;;;;;;;6.40;2.85;;;;;;;17.48;100.00;95039.06;4959135;28;20039;-87
2023/09/06 06:45:53;;;;;;;5.43;3.17;;;;;;;17.67;100.00;95039.75;4945542;29;20038;-87
2023/09/06 06:48:19;;;;;;;6.88;3.40;;;;;;;17.79;100.00;95041.91;4944541;29;20046;-87
2023/09/06 06:50:44;;;;;;;9.10;3.55;;;;;;;17.92;100.00;95045.59;4962002;29;20039;-85
2023/09/06 06:53:09;;;;;;;8.82;3.30;;;;;;;17.75;100.00;95042.78;4945000;29;20049;-86
2023/09/06 06:55:38;;;;;;;4.72;3.10;;;;;;;18.05;100.00;95049.34;4961931;29;20066;-87
2023/09/06 06:58:05;;;;;;;5.95;3.28;;;;;;;18.15;100.00;95045.69;4925832;29;20062;-87
2023/09/06 07:00:31;;;;;;;6.95;3.47;;;;;;;18.28;100.00;95048.59;4925899;29;20445;-86
2023/09/06 07:02:57;;;;;;;8.07;3.17;;;;;;;18.12;100.00;95048.16;4925435;29;20032;-86
2023/09/06 07:05:23;;;;;;;4.68;3.15;;;;;;;18.29;100.00;95058.94;4909494;29;20039;-86
2023/09/06 07:07:49;;;;;;;9.30;3.42;;;;;;;18.33;100.00;95059.09;4942498;29;20040;-87
2023/09/06 07:10:15;;;;;;;8.52;4.80;;;;;;;18.28;100.00;95046.72;4925722;29;20127;-87
2023/09/06 07:12:41;;;;;;;8.98;3.30;;;;;;;18.33;100.00;95053.78;4942916;29;20090;-86
2023/09/06 07:15:07;;;;;;;5.32;3.10;;;;;;;18.37;100.00;95055.53;4909817;29;20054;-87
2023/09/06 07:17:32;;;;;;;6.45;3.05;;;;;;;18.62;100.00;95058.72;4925221;29;20043;-87
2023/09/06 07:19:58;;;;;;;6.72;3.20;;;;;;;18.53;100.00;95060.50;4925461;29;20039;-87
2023/09/06 07:22:24;;;;;;;6.97;3.08;;;;;;;18.55;100.00;95068.16;4942592;29;20118;-86
2023/09/06 07:24:50;;;;;;;11.50;3.67;;;;;;;18.44;100.00;95065.75;4925079;29;20111;-86
2023/09/06 07:27:18;;;;;;;8.45;2.90;;;;;;;18.58;100.00;95070.22;4925224;29;20036;-88
2023/09/06 07:29:43;;;;;;;6.53;3.20;;;;;;;18.47;100.00;95069.69;4925300;29;20051;-89
2023/09/06 07:32:08;;;;;;;5.63;2.92;;;;;;;18.83;100.00;95062.75;4942473;29;20076;-89
2023/09/06 07:34:34;;;;;;;7.00;3.20;;;;;;;18.94;100.00;95072.81;4925467;29;20427;-89
2023/09/06 07:37:00;;;;;;;8.93;2.88;;;;;;;18.97;100.00;95071.44;4925393;29;20035;-88
2023/09/06 07:39:25;;;;;;;4.70;2.92;;;;;;;19.23;100.00;95072.69;4925313;29;20039;-88
2023/09/06 07:41:51;;;;;;;5.20;3.05;;;;;;;19.20;100.00;95074.06;4909401;29;20050;-88
2023/09/06 07:44:18;;;;;;;9.60;3.17;;;;;;;19.34;100.00;95071.34;4909538;29;20027;-88
2023/09/06 07:46:48;;;;;;;5.85;3.05;;;;;;;19.60;100.00;95066.13;4925003;29;20349;-88
2023/09/06 07:49:16;;;;;;;6.82;3.22;;;;;;;19.67;100.00;95059.59;4925734;29;20434;-88
2023/09/06 07:51:42;;;;;;;8.30;3.88;;;;;;;19.45;100.00;95072.63;4925105;29;20039;-89
2023/09/06 07:54:07;;;;;;;6.97;3.63;;;;;;;19.48;100.00;95069.38;4924573;29;20035;-87
2023/09/06 07:56:33;;;;;;;4.90;3.35;;;;;;;19.77;100.00;95075.22;4941965;29;20106;-88
2023/09/06 07:58:58;;;;;;;9.15;3.55;;;;;;;19.70;100.00;95080.22;4924895;29;20559;-88
2023/09/06 08:01:24;;;;;;;10.40;3.92;;;;;;;19.81;100.00;95075.41;4941583;29;20091;-87
2023/09/06 08:03:49;;;;;;;6.82;3.45;;;;;;;19.98;100.00;95072.81;4924885;29;20338;-88
2023/09/06 08:06:15;;;;;;;5.30;3.55;;;;;;;19.95;100.00;95072.66;4924789;29;20036;-88
2023/09/06 08:08:40;;;;;;;6.68;3.42;;;;;;;20.15;100.00;95072.06;4924418;29;20036;-88
2023/09/06 08:11:06;;;;;;;9.07;3.90;;;;;;;20.20;100.00;95073.78;4924774;29;20043;-88
2023/09/06 08:13:31;;;;;;;8.38;4.40;;;;;;;19.98;100.00;95067.50;4959431;29;20106;-88
2023/09/06 08:15:57;;;;;;;9.23;3.85;;;;;;;20.14;100.00;95078.47;4943449;29;20039;-88
2023/09/06 08:18:22;;;;;;;6.60;3.78;;;;;;;20.09;100.00;95065.34;4943299;29;20595;-89
2023/09/06 08:20:48;;;;;;;17.55;3.78;;;;;;;20.09;100.00;95065.34;4927688;29;20062;-88
2023/09/06 08:23:13;;;;;;;6.05;3.33;;;;;;;20.32;100.00;95062.53;4943402;29;20027;-89
2023/09/06 08:25:39;;;;;;;8.85;4.07;;;;;;;20.05;100.00;95077.66;4943412;29;20027;-88
2023/09/06 08:28:05;;;;;;;9.98;3.10;;;;;;;20.25;100.00;95078.97;4953658;29;20031;-88
2023/09/06 08:30:31;;;;;;;9.30;3.65;;;;;;;20.16;100.00;95086.94;4924517;29;20027;-86
2023/09/06 08:32:56;;;;;;;9.10;3.85;;;;;;;20.35;100.00;95083.19;4943001;29;20113;-89
2023/09/06 08:35:23;;;;;;;4.82;3.42;;;;;;;20.49;100.00;95086.47;4943075;29;20034;-88
2023/09/06 08:37:49;;;;;;;6.90;3.47;;;;;;;20.66;100.00;95095.59;4943132;29;20106;-88
2023/09/06 08:40:15;;;;;;;9.65;4.32;;;;;;;20.65;100.00;95090.56;4942867;29;20577;-89
2023/09/06 08:42:43;;;;;;;7.25;3.40;;;;;;;20.66;100.00;95092.91;4943359;29;20039;-87
2023/09/06 08:45:09;;;;;;;12.70;3.53;;;;;;;20.56;100.00;95093.22;4943181;29;20042;-88
2023/09/06 08:47:37;;;;;;;7.18;3.30;;;;;;;20.64;100.00;95092.44;4943083;29;20039;-87
2023/09/06 08:50:03;;;;;;;12.23;3.88;;;;;;;20.61;100.00;95093.06;4942860;29;20034;-88
2023/09/06 08:52:31;;;;;;;10.30;3.70;;;;;;;20.44;100.00;95091.97;4942643;29;20115;-87
2023/09/06 08:54:57;;;;;;;4.32;3.00;;;;;;;20.50;100.00;95095.25;4943219;29;20126;-88
2023/09/06 08:57:23;;;;;;;10.25;3.90;;;;;;;20.54;100.00;95092.75;4926869;29;20034;-88
2023/09/06 08:59:49;;;;;;;6.93;3.35;;;;;;;20.59;100.00;95090.72;4926778;29;20345;-89
2023/09/06 09:02:15;;;;;;;5.82;3.60;;;;;;;20.91;100.00;95090.56;4959908;29;20401;-88
2023/09/06 09:04:42;;;;;;;8.60;3.72;;;;;;;20.63;100.00;95096.19;4942947;29;20031;-89
2023/09/06 09:07:11;;;;;;;6.18;3.28;;;;;;;20.82;100.00;95089.81;4959479;28;20035;-89
2023/09/06 09:09:57;;;;;;;9.15;3.60;;;;;;;20.95;100.00;95101.38;4926546;29;20038;-89
2023/09/06 09:12:24;;;;;;;4.78;3.28;;;;;;;21.05;100.00;95101.06;4942719;29;20035;-88
2023/09/06 09:14:50;;;;;;;4.20;2.95;;;;;;;20.85;100.00;95086.50;4942741;29;20460;-89
2023/09/06 09:17:19;;;;;;;9.68;4.03;;;;;;;20.88;100.00;95093.88;4959540;29;20070;-89
2023/09/06 09:19:51;;;;;;;8.75;3.92;;;;;;;21.14;100.00;95090.38;4942229;29;20049;-88
2023/09/06 09:22:27;;;;;;;5.07;3.28;;;;;;;21.50;100.00;95091.81;4959536;29;20031;-87
2023/09/06 09:25:00;;;;;;;4.93;3.08;;;;;;;21.60;100.00;95094.16;4941789;29;20472;-90
2023/09/06 09:27:27;;;;;;;8.73;2.67;;;;;;;21.64;100.00;95096.16;4942082;29;20035;-89
2023/09/06 09:29:53;;;;;;;5.75;3.05;;;;;;;21.36;100.00;95099.25;4942351;29;20043;-88
2023/09/06 09:32:19;;;;;;;7.10;2.88;;;;;;;21.55;100.00;95094.34;4926367;29;20074;-89
2023/09/06 09:34:44;;;;;;;4.88;2.72;;;;;;;21.75;100.00;95090.19;4926267;29;20027;-88
2023/09/06 09:37:10;;;;;;;12.13;3.05;;;;;;;21.55;94.61;95086.34;4942083;29;20030;-90
2023/09/06 09:39:37;;;;;;;6.72;3.40;;;;;;;21.14;98.04;95093.03;4941758;29;20049;-88
2023/09/06 09:42:08;;;;;;;6.93;3.70;;;;;;;21.52;98.41;95088.84;4941985;29;20067;-87
2023/09/06 09:44:34;;;;;;;9.68;3.70;;;;;;;21.43;92.51;95097.66;4942152;29;20035;-87
2023/09/06 09:47:08;;;;;;;5.72;3.03;;;;;;;21.85;94.54;95097.06;4959117;29;20046;-90
2023/09/06 09:49:35;;;;;;;5.18;3.70;;;;;;;21.92;93.27;95095.75;4941587;29;20110;-90
2023/09/06 09:52:00;;;;;;;9.65;3.63;;;;;;;22.05;93.30;95099.31;4941415;29;20074;-91
2023/09/06 09:54:30;;;;;;;10.93;3.65;;;;;;;21.72;87.53;95106.81;4941970;29;20114;-87
2023/09/06 09:57:04;;;;;;;4.53;3.33;;;;;;;21.14;88.21;95101.81;4959016;29;20035;-87
2023/09/06 09:59:31;;;;;;;5.22;2.80;;;;;;;21.44;87.94;95099.22;4938779;29;20450;-87
2023/09/06 10:01:58;;;;;;;6.40;2.50;;;;;;;21.79;92.08;95098.31;4941564;29;20125;-88
2023/09/06 10:04:26;;;;;;;6.90;2.65;;;;;;;21.76;82.84;95098.97;4941711;29;20398;-88
2023/09/06 10:06:53;;;;;;;5.75;3.33;;;;;;;21.85;87.07;95112.25;4942135;29;20039;-89
2023/09/06 10:09:19;;;;;;;4.63;3.20;;;;;;;21.57;85.43;95094.00;4958465;29;20038;-87
2023/09/06 10:11:45;;;;;;;6.97;3.45;;;;;;;21.69;90.95;95088.81;4941534;29;20027;-88
2023/09/06 10:14:12;;;;;;;5.97;2.72;;;;;;;22.08;89.41;95098.66;4925933;29;20031;-89
2023/09/06 10:16:38;;;;;;;5.93;3.25;;;;;;;22.09;88.59;95089.56;4941466;29;20031;-89
2023/09/06 10:19:03;;;;;;;8.00;3.13;;;;;;;22.02;84.95;95090.06;4943389;29;20046;-89
2023/09/06 10:21:30;;;;;;;6.53;2.72;;;;;;;21.97;80.70;95092.91;4945348;29;20031;-86
2023/09/06 10:23:56;;;;;;;5.75;3.58;;;;;;;21.75;80.95;95092.06;4945326;29;20043;-91
2023/09/06 10:26:27;;;;;;;4.13;2.70;;;;;;;21.65;91.15;95087.06;4929777;29;20046;-90
2023/09/06 10:29:11;;;;;;;5.55;3.08;;;;;;;21.85;85.44;95085.59;4945229;29;20039;-92
2023/09/06 10:31:50;;;;;;;;;;;;;;;21.63;83.15;95084.72;4945738;29;20059;-91
2023/09/06 10:34:15;;;;;;;6.13;3.45;;;;;;;22.17;85.36;95086.06;4945436;29;19921;-92
2023/09/06 10:36:56;;;;;;;5.95;3.53;;;;;;;22.39;87.78;95084.97;4944900;29;20361;-90
2023/09/06 10:39:25;;;;;;;6.43;3.33;;;;;;;22.13;88.38;95085.91;4929500;29;20031;-89
2023/09/06 10:42:09;;;;;;;6.35;3.30;;;;;;;21.97;82.27;95095.59;4945061;29;20031;-91
2023/09/06 10:44:56;;;;;;;5.90;3.50;;;;;;;21.98;87.47;95094.47;4941840;29;20342;-90
2023/09/06 10:47:24;;;;;;;9.43;3.20;;;;;;;22.05;83.78;95092.06;4942665;29;20042;-91
2023/09/06 10:50:09;;;;;;;6.32;3.35;;;;;;;21.99;87.62;95090.72;4925932;29;20418;-88
2023/09/06 10:52:41;;;;;;;9.90;4.05;;;;;;;21.91;82.98;95078.97;4926895;29;20039;-90
2023/09/06 10:55:25;;;;;;;5.95;3.65;;;;;;;22.08;84.25;95080.75;4944736;29;20365;-90
2023/09/06 10:58:18;;;;;;;;;;;;;;;;;;;;;
2023/09/06 11:01:12;;;;;;;6.15;3.80;;;;;;;22.27;85.98;95080.31;4945966;29;20049;-91
2023/09/06 11:03:57;;;;;;;;;;;;;;;;;;;;;
2023/09/06 11:06:54;;;;;;;6.63;4.28;;;;;;;22.25;87.48;95079.88;4961733;29;20031;-90
2023/09/06 11:09:31;;;;;;;;;;;;;;;;;;;;;
2023/09/06 11:11:58;;;;;;;11.50;4.28;;;;;;;22.25;88.80;95076.44;4946149;29;20019;-88
2023/09/06 11:14:37;;;;;;;12.25;4.53;;;;;;;22.51;86.63;95070.13;4929670;29;20042;-89
2023/09/06 11:17:05;;;;;;;11.65;4.07;;;;;;;22.50;87.27;95065.88;4929784;29;20054;-88
2023/09/06 11:19:41;;;;;;;;;;;;;;;;;;;;;
2023/09/06 11:22:16;;;;;;;8.73;3.70;;;;;;;22.55;91.07;95068.38;4945799;29;20031;-90
2023/09/06 11:24:55;;;;;;;;;;;;;;;;;;;;;
2023/09/06 11:27:24;;;;;;;8.18;4.20;;;;;;;21.74;89.88;95055.84;4945888;29;20459;-90
2023/09/06 11:30:09;;;;;;;;;;;;;;;;;;;;;
2023/09/06 11:32:46;;;;;;;7.97;3.85;;;;;;;22.44;88.54;95052.72;4945908;29;20023;-90
2023/09/06 11:35:19;;;;;;;4.57;3.08;;;;;;;23.04;87.48;95053.63;4929436;29;20066;-89
2023/09/06 11:37:53;;;;;;;6.60;4.78;;;;;;;22.58;86.82;95051.69;4945067;29;20031;-91